sensor_id;sensor_type;location;lat;lon;timestamp;P1;durP1;ratioP1;P2;durP2;ratioP2
69678;SDS011;56915;52.046;4.854;2023-03-02T00:01:28;33.33;;;11.55;;
69678;SDS011;56915;52.046;4.854;2023-03-02T00:03:58;25.63;;;10.05;;
69678;SDS011;56915;52.046;4.854;2023-03-02T00:06:28;26.10;;;10.02;;
69678;SDS011;56915;52.046;4.854;2023-03-02T00:08:57;39.97;;;14.20;;
69678;SDS011;56915;52.046;4.854;2023-03-02T00:11:26;24.73;;;9.30;;
69678;SDS011;56915;52.046;4.854;2023-03-02T00:13:55;39.00;;;13.98;;
69678;SDS011;56915;52.046;4.854;2023-03-02T00:16:22;30.85;;;11.43;;
69678;SDS011;56915;52.046;4.854;2023-03-02T00:18:49;38.92;;;14.80;;
69678;SDS011;56915;52.046;4.854;2023-03-02T00:21:16;33.20;;;11.73;;
69678;SDS011;56915;52.046;4.854;2023-03-02T00:23:43;39.70;;;13.55;;
69678;SDS011;56915;52.046;4.854;2023-03-02T00:26:10;34.22;;;12.52;;
69678;SDS011;56915;52.046;4.854;2023-03-02T00:28:36;35.13;;;12.82;;
69678;SDS011;56915;52.046;4.854;2023-03-02T00:31:03;41.03;;;14.48;;
69678;SDS011;56915;52.046;4.854;2023-03-02T00:33:33;38.87;;;12.83;;
69678;SDS011;56915;52.046;4.854;2023-03-02T00:36:00;33.13;;;12.25;;
69678;SDS011;56915;52.046;4.854;2023-03-02T00:38:28;40.22;;;14.13;;
69678;SDS011;56915;52.046;4.854;2023-03-02T00:40:55;43.00;;;15.55;;
69678;SDS011;56915;52.046;4.854;2023-03-02T00:43:22;42.88;;;15.35;;
69678;SDS011;56915;52.046;4.854;2023-03-02T00:45:53;31.87;;;11.77;;
69678;SDS011;56915;52.046;4.854;2023-03-02T00:48:20;36.10;;;13.05;;
69678;SDS011;56915;52.046;4.854;2023-03-02T00:50:47;38.90;;;14.20;;
69678;SDS011;56915;52.046;4.854;2023-03-02T00:53:14;43.53;;;14.75;;
69678;SDS011;56915;52.046;4.854;2023-03-02T00:55:51;36.55;;;12.80;;
69678;SDS011;56915;52.046;4.854;2023-03-02T00:58:21;32.43;;;12.50;;
69678;SDS011;56915;52.046;4.854;2023-03-02T01:00:47;41.13;;;14.75;;
69678;SDS011;56915;52.046;4.854;2023-03-02T01:03:14;43.30;;;14.13;;
69678;SDS011;56915;52.046;4.854;2023-03-02T01:05:41;29.15;;;11.20;;
69678;SDS011;56915;52.046;4.854;2023-03-02T01:08:08;40.03;;;13.82;;
69678;SDS011;56915;52.046;4.854;2023-03-02T01:10:35;40.43;;;14.07;;
69678;SDS011;56915;52.046;4.854;2023-03-02T01:13:02;50.45;;;16.27;;
69678;SDS011;56915;52.046;4.854;2023-03-02T01:15:31;51.53;;;16.92;;
69678;SDS011;56915;52.046;4.854;2023-03-02T01:17:58;38.88;;;13.55;;
69678;SDS011;56915;52.046;4.854;2023-03-02T01:20:26;40.08;;;12.95;;
69678;SDS011;56915;52.046;4.854;2023-03-02T01:22:53;45.87;;;15.07;;
69678;SDS011;56915;52.046;4.854;2023-03-02T01:25:20;47.47;;;15.15;;
69678;SDS011;56915;52.046;4.854;2023-03-02T01:27:47;51.95;;;16.20;;
69678;SDS011;56915;52.046;4.854;2023-03-02T01:30:14;31.40;;;10.77;;
69678;SDS011;56915;52.046;4.854;2023-03-02T01:32:41;36.60;;;12.95;;
69678;SDS011;56915;52.046;4.854;2023-03-02T01:35:08;51.03;;;14.60;;
69678;SDS011;56915;52.046;4.854;2023-03-02T01:37:35;42.58;;;13.50;;
69678;SDS011;56915;52.046;4.854;2023-03-02T01:40:02;36.42;;;12.48;;
69678;SDS011;56915;52.046;4.854;2023-03-02T01:42:38;35.65;;;12.07;;
69678;SDS011;56915;52.046;4.854;2023-03-02T01:48:07;41.00;;;12.27;;
69678;SDS011;56915;52.046;4.854;2023-03-02T01:50:36;44.65;;;13.32;;
69678;SDS011;56915;52.046;4.854;2023-03-02T01:53:02;45.60;;;13.48;;
69678;SDS011;56915;52.046;4.854;2023-03-02T01:55:30;47.35;;;14.45;;
69678;SDS011;56915;52.046;4.854;2023-03-02T01:57:59;39.63;;;11.63;;
69678;SDS011;56915;52.046;4.854;2023-03-02T02:00:29;40.40;;;12.43;;
69678;SDS011;56915;52.046;4.854;2023-03-02T02:03:36;31.88;;;11.23;;
69678;SDS011;56915;52.046;4.854;2023-03-02T02:06:08;39.33;;;11.27;;
69678;SDS011;56915;52.046;4.854;2023-03-02T02:08:46;53.50;;;15.38;;
69678;SDS011;56915;52.046;4.854;2023-03-02T02:11:14;50.40;;;15.00;;
69678;SDS011;56915;52.046;4.854;2023-03-02T02:13:42;41.90;;;12.10;;
69678;SDS011;56915;52.046;4.854;2023-03-02T02:16:09;48.05;;;13.93;;
69678;SDS011;56915;52.046;4.854;2023-03-02T02:18:37;57.05;;;17.10;;
69678;SDS011;56915;52.046;4.854;2023-03-02T02:21:06;42.10;;;12.98;;
69678;SDS011;56915;52.046;4.854;2023-03-02T02:26:22;32.47;;;11.77;;
69678;SDS011;56915;52.046;4.854;2023-03-02T02:31:43;32.28;;;10.80;;
69678;SDS011;56915;52.046;4.854;2023-03-02T02:34:17;37.15;;;10.88;;
69678;SDS011;56915;52.046;4.854;2023-03-02T02:36:55;29.65;;;11.25;;
69678;SDS011;56915;52.046;4.854;2023-03-02T02:39:31;39.03;;;12.30;;
69678;SDS011;56915;52.046;4.854;2023-03-02T02:42:02;51.70;;;14.38;;
69678;SDS011;56915;52.046;4.854;2023-03-02T02:44:32;36.28;;;12.02;;
69678;SDS011;56915;52.046;4.854;2023-03-02T02:46:59;36.40;;;12.48;;
69678;SDS011;56915;52.046;4.854;2023-03-02T02:49:30;38.72;;;12.07;;
69678;SDS011;56915;52.046;4.854;2023-03-02T02:52:00;37.53;;;12.40;;
69678;SDS011;56915;52.046;4.854;2023-03-02T02:54:28;35.50;;;11.35;;
69678;SDS011;56915;52.046;4.854;2023-03-02T02:56:58;42.33;;;14.15;;
69678;SDS011;56915;52.046;4.854;2023-03-02T02:59:27;42.47;;;12.73;;
69678;SDS011;56915;52.046;4.854;2023-03-02T03:02:00;35.15;;;11.60;;
69678;SDS011;56915;52.046;4.854;2023-03-02T03:04:28;38.37;;;12.00;;
69678;SDS011;56915;52.046;4.854;2023-03-02T03:07:00;50.60;;;15.88;;
69678;SDS011;56915;52.046;4.854;2023-03-02T03:09:29;42.38;;;13.43;;
69678;SDS011;56915;52.046;4.854;2023-03-02T03:12:02;32.67;;;11.52;;
69678;SDS011;56915;52.046;4.854;2023-03-02T03:14:37;37.17;;;12.90;;
69678;SDS011;56915;52.046;4.854;2023-03-02T03:17:05;42.07;;;13.23;;
69678;SDS011;56915;52.046;4.854;2023-03-02T03:19:39;32.97;;;11.23;;
69678;SDS011;56915;52.046;4.854;2023-03-02T03:22:08;37.05;;;11.02;;
69678;SDS011;56915;52.046;4.854;2023-03-02T03:24:39;39.35;;;13.02;;
69678;SDS011;56915;52.046;4.854;2023-03-02T03:27:09;36.53;;;11.30;;
69678;SDS011;56915;52.046;4.854;2023-03-02T03:29:38;31.10;;;10.17;;
69678;SDS011;56915;52.046;4.854;2023-03-02T03:32:06;32.60;;;10.70;;
69678;SDS011;56915;52.046;4.854;2023-03-02T03:34:34;41.63;;;12.35;;
69678;SDS011;56915;52.046;4.854;2023-03-02T03:37:07;40.55;;;11.82;;
69678;SDS011;56915;52.046;4.854;2023-03-02T03:39:35;42.65;;;12.80;;
69678;SDS011;56915;52.046;4.854;2023-03-02T03:42:03;34.00;;;10.47;;
69678;SDS011;56915;52.046;4.854;2023-03-02T03:44:30;30.77;;;9.75;;
69678;SDS011;56915;52.046;4.854;2023-03-02T03:46:57;41.50;;;13.38;;
69678;SDS011;56915;52.046;4.854;2023-03-02T03:49:25;41.60;;;13.00;;
69678;SDS011;56915;52.046;4.854;2023-03-02T03:51:52;35.38;;;12.18;;
69678;SDS011;56915;52.046;4.854;2023-03-02T03:54:19;35.97;;;11.80;;
69678;SDS011;56915;52.046;4.854;2023-03-02T03:56:46;48.95;;;15.40;;
69678;SDS011;56915;52.046;4.854;2023-03-02T03:59:16;44.80;;;14.18;;
69678;SDS011;56915;52.046;4.854;2023-03-02T04:01:53;33.72;;;10.43;;
69678;SDS011;56915;52.046;4.854;2023-03-02T04:04:23;42.88;;;11.27;;
69678;SDS011;56915;52.046;4.854;2023-03-02T04:06:55;39.47;;;12.73;;
69678;SDS011;56915;52.046;4.854;2023-03-02T04:09:22;39.78;;;11.52;;
69678;SDS011;56915;52.046;4.854;2023-03-02T04:11:50;37.72;;;11.90;;
69678;SDS011;56915;52.046;4.854;2023-03-02T04:14:18;32.17;;;10.70;;
69678;SDS011;56915;52.046;4.854;2023-03-02T04:16:46;28.60;;;11.70;;
69678;SDS011;56915;52.046;4.854;2023-03-02T04:19:14;37.23;;;12.17;;
69678;SDS011;56915;52.046;4.854;2023-03-02T04:21:43;28.98;;;10.73;;
69678;SDS011;56915;52.046;4.854;2023-03-02T04:24:13;32.95;;;10.75;;
69678;SDS011;56915;52.046;4.854;2023-03-02T04:26:40;42.58;;;12.98;;
69678;SDS011;56915;52.046;4.854;2023-03-02T04:29:08;33.95;;;11.38;;
69678;SDS011;56915;52.046;4.854;2023-03-02T04:31:36;33.70;;;10.87;;
69678;SDS011;56915;52.046;4.854;2023-03-02T04:34:03;40.78;;;12.50;;
69678;SDS011;56915;52.046;4.854;2023-03-02T04:36:31;37.25;;;12.02;;
69678;SDS011;56915;52.046;4.854;2023-03-02T04:39:00;35.40;;;10.98;;
69678;SDS011;56915;52.046;4.854;2023-03-02T04:41:28;40.58;;;12.65;;
69678;SDS011;56915;52.046;4.854;2023-03-02T04:43:55;35.90;;;12.03;;
69678;SDS011;56915;52.046;4.854;2023-03-02T04:46:23;30.08;;;10.38;;
69678;SDS011;56915;52.046;4.854;2023-03-02T04:48:51;30.35;;;9.48;;
69678;SDS011;56915;52.046;4.854;2023-03-02T04:51:24;34.83;;;11.00;;
69678;SDS011;56915;52.046;4.854;2023-03-02T04:53:53;37.55;;;11.35;;
69678;SDS011;56915;52.046;4.854;2023-03-02T04:56:22;36.37;;;11.47;;
69678;SDS011;56915;52.046;4.854;2023-03-02T04:58:49;29.88;;;10.05;;
69678;SDS011;56915;52.046;4.854;2023-03-02T05:01:16;29.85;;;9.40;;
69678;SDS011;56915;52.046;4.854;2023-03-02T05:03:44;29.00;;;9.77;;
69678;SDS011;56915;52.046;4.854;2023-03-02T05:06:11;27.80;;;9.02;;
69678;SDS011;56915;52.046;4.854;2023-03-02T05:08:39;32.40;;;10.60;;
69678;SDS011;56915;52.046;4.854;2023-03-02T05:11:06;32.05;;;10.13;;
69678;SDS011;56915;52.046;4.854;2023-03-02T05:13:34;26.77;;;9.05;;
69678;SDS011;56915;52.046;4.854;2023-03-02T05:16:01;32.55;;;11.10;;
69678;SDS011;56915;52.046;4.854;2023-03-02T05:18:28;28.25;;;9.48;;
69678;SDS011;56915;52.046;4.854;2023-03-02T05:20:55;30.67;;;10.27;;
69678;SDS011;56915;52.046;4.854;2023-03-02T05:23:22;31.42;;;10.30;;
69678;SDS011;56915;52.046;4.854;2023-03-02T05:25:51;34.63;;;10.60;;
69678;SDS011;56915;52.046;4.854;2023-03-02T05:28:20;24.27;;;9.30;;
69678;SDS011;56915;52.046;4.854;2023-03-02T05:30:49;33.38;;;10.05;;
69678;SDS011;56915;52.046;4.854;2023-03-02T05:33:16;29.33;;;9.30;;
69678;SDS011;56915;52.046;4.854;2023-03-02T05:35:44;34.53;;;10.82;;
69678;SDS011;56915;52.046;4.854;2023-03-02T05:38:11;28.67;;;9.65;;
69678;SDS011;56915;52.046;4.854;2023-03-02T05:40:38;30.13;;;9.50;;
69678;SDS011;56915;52.046;4.854;2023-03-02T05:43:05;29.38;;;9.30;;
69678;SDS011;56915;52.046;4.854;2023-03-02T05:45:35;37.53;;;11.80;;
69678;SDS011;56915;52.046;4.854;2023-03-02T05:48:03;27.40;;;8.88;;
69678;SDS011;56915;52.046;4.854;2023-03-02T05:50:30;28.08;;;9.38;;
69678;SDS011;56915;52.046;4.854;2023-03-02T05:52:58;25.63;;;9.43;;
69678;SDS011;56915;52.046;4.854;2023-03-02T05:55:27;32.60;;;10.63;;
69678;SDS011;56915;52.046;4.854;2023-03-02T05:57:54;40.97;;;11.83;;
69678;SDS011;56915;52.046;4.854;2023-03-02T06:00:21;27.27;;;10.10;;
69678;SDS011;56915;52.046;4.854;2023-03-02T06:02:48;31.67;;;10.43;;
69678;SDS011;56915;52.046;4.854;2023-03-02T06:05:16;28.45;;;9.95;;
69678;SDS011;56915;52.046;4.854;2023-03-02T06:07:44;36.53;;;10.95;;
69678;SDS011;56915;52.046;4.854;2023-03-02T06:10:11;25.80;;;9.23;;
69678;SDS011;56915;52.046;4.854;2023-03-02T06:12:39;24.20;;;8.80;;
69678;SDS011;56915;52.046;4.854;2023-03-02T06:15:06;38.38;;;12.05;;
69678;SDS011;56915;52.046;4.854;2023-03-02T06:17:34;35.72;;;10.73;;
69678;SDS011;56915;52.046;4.854;2023-03-02T06:20:01;25.60;;;8.77;;
69678;SDS011;56915;52.046;4.854;2023-03-02T06:22:31;28.03;;;9.03;;
69678;SDS011;56915;52.046;4.854;2023-03-02T06:24:57;31.58;;;10.35;;
69678;SDS011;56915;52.046;4.854;2023-03-02T06:27:24;30.92;;;10.25;;
69678;SDS011;56915;52.046;4.854;2023-03-02T06:29:51;37.33;;;11.65;;
69678;SDS011;56915;52.046;4.854;2023-03-02T06:32:18;33.72;;;10.18;;
69678;SDS011;56915;52.046;4.854;2023-03-02T06:34:45;24.33;;;8.77;;
69678;SDS011;56915;52.046;4.854;2023-03-02T06:37:13;25.20;;;8.98;;
69678;SDS011;56915;52.046;4.854;2023-03-02T06:39:40;25.17;;;9.48;;
69678;SDS011;56915;52.046;4.854;2023-03-02T06:42:06;28.75;;;9.57;;
69678;SDS011;56915;52.046;4.854;2023-03-02T06:44:33;40.13;;;12.20;;
69678;SDS011;56915;52.046;4.854;2023-03-02T06:47:00;32.40;;;10.40;;
69678;SDS011;56915;52.046;4.854;2023-03-02T06:49:26;40.65;;;11.90;;
69678;SDS011;56915;52.046;4.854;2023-03-02T06:51:53;36.10;;;10.98;;
69678;SDS011;56915;52.046;4.854;2023-03-02T06:54:20;30.10;;;9.75;;
69678;SDS011;56915;52.046;4.854;2023-03-02T06:56:49;26.75;;;9.32;;
69678;SDS011;56915;52.046;4.854;2023-03-02T06:59:16;31.87;;;10.20;;
69678;SDS011;56915;52.046;4.854;2023-03-02T07:01:42;24.08;;;8.98;;
69678;SDS011;56915;52.046;4.854;2023-03-02T07:04:09;35.92;;;11.10;;
69678;SDS011;56915;52.046;4.854;2023-03-02T07:06:36;34.72;;;10.40;;
69678;SDS011;56915;52.046;4.854;2023-03-02T07:09:03;34.70;;;11.35;;
69678;SDS011;56915;52.046;4.854;2023-03-02T07:11:30;38.33;;;11.90;;
69678;SDS011;56915;52.046;4.854;2023-03-02T07:14:00;39.28;;;12.23;;
69678;SDS011;56915;52.046;4.854;2023-03-02T07:16:27;32.17;;;10.93;;
69678;SDS011;56915;52.046;4.854;2023-03-02T07:18:55;36.92;;;11.05;;
69678;SDS011;56915;52.046;4.854;2023-03-02T07:21:22;36.03;;;10.52;;
69678;SDS011;56915;52.046;4.854;2023-03-02T07:23:49;36.70;;;11.77;;
69678;SDS011;56915;52.046;4.854;2023-03-02T07:26:16;38.78;;;11.70;;
69678;SDS011;56915;52.046;4.854;2023-03-02T07:28:42;34.13;;;11.32;;
69678;SDS011;56915;52.046;4.854;2023-03-02T07:31:09;29.95;;;10.23;;
69678;SDS011;56915;52.046;4.854;2023-03-02T07:33:38;36.90;;;11.85;;
69678;SDS011;56915;52.046;4.854;2023-03-02T07:36:06;47.93;;;13.73;;
69678;SDS011;56915;52.046;4.854;2023-03-02T07:38:33;34.38;;;12.07;;
69678;SDS011;56915;52.046;4.854;2023-03-02T07:41:06;26.35;;;8.93;;
69678;SDS011;56915;52.046;4.854;2023-03-02T07:43:34;24.55;;;8.45;;
69678;SDS011;56915;52.046;4.854;2023-03-02T07:46:02;37.92;;;11.35;;
69678;SDS011;56915;52.046;4.854;2023-03-02T07:48:30;37.33;;;11.73;;
69678;SDS011;56915;52.046;4.854;2023-03-02T07:50:58;31.90;;;10.57;;
69678;SDS011;56915;52.046;4.854;2023-03-02T07:53:26;34.55;;;11.77;;
69678;SDS011;56915;52.046;4.854;2023-03-02T07:55:53;33.80;;;10.90;;
69678;SDS011;56915;52.046;4.854;2023-03-02T07:58:20;22.85;;;8.82;;
69678;SDS011;56915;52.046;4.854;2023-03-02T08:00:47;29.77;;;10.67;;
69678;SDS011;56915;52.046;4.854;2023-03-02T08:03:14;37.90;;;12.75;;
69678;SDS011;56915;52.046;4.854;2023-03-02T08:05:41;37.10;;;12.65;;
69678;SDS011;56915;52.046;4.854;2023-03-02T08:08:08;39.25;;;13.05;;
69678;SDS011;56915;52.046;4.854;2023-03-02T08:10:35;33.03;;;10.85;;
69678;SDS011;56915;52.046;4.854;2023-03-02T08:13:02;29.03;;;10.23;;
69678;SDS011;56915;52.046;4.854;2023-03-02T08:15:30;32.22;;;11.40;;
69678;SDS011;56915;52.046;4.854;2023-03-02T08:17:57;35.70;;;11.32;;
69678;SDS011;56915;52.046;4.854;2023-03-02T08:20:24;39.03;;;12.65;;
69678;SDS011;56915;52.046;4.854;2023-03-02T08:22:51;31.13;;;10.50;;
69678;SDS011;56915;52.046;4.854;2023-03-02T08:25:18;25.47;;;9.13;;
69678;SDS011;56915;52.046;4.854;2023-03-02T08:27:45;31.17;;;10.63;;
69678;SDS011;56915;52.046;4.854;2023-03-02T08:30:12;29.33;;;10.35;;
69678;SDS011;56915;52.046;4.854;2023-03-02T08:32:39;29.05;;;10.27;;
69678;SDS011;56915;52.046;4.854;2023-03-02T08:35:06;26.80;;;9.23;;
69678;SDS011;56915;52.046;4.854;2023-03-02T08:37:33;25.03;;;8.83;;
69678;SDS011;56915;52.046;4.854;2023-03-02T08:40:00;26.55;;;9.68;;
69678;SDS011;56915;52.046;4.854;2023-03-02T08:42:26;30.17;;;9.48;;
69678;SDS011;56915;52.046;4.854;2023-03-02T08:44:53;27.38;;;9.65;;
69678;SDS011;56915;52.046;4.854;2023-03-02T08:47:20;29.27;;;10.32;;
69678;SDS011;56915;52.046;4.854;2023-03-02T08:49:47;35.20;;;11.87;;
69678;SDS011;56915;52.046;4.854;2023-03-02T08:52:15;32.45;;;10.85;;
69678;SDS011;56915;52.046;4.854;2023-03-02T08:54:42;28.67;;;10.18;;
69678;SDS011;56915;52.046;4.854;2023-03-02T08:57:09;26.00;;;9.15;;
69678;SDS011;56915;52.046;4.854;2023-03-02T08:59:37;29.98;;;10.65;;
69678;SDS011;56915;52.046;4.854;2023-03-02T09:02:04;24.93;;;9.43;;
69678;SDS011;56915;52.046;4.854;2023-03-02T09:04:30;26.63;;;8.65;;
69678;SDS011;56915;52.046;4.854;2023-03-02T09:06:57;27.38;;;11.00;;
69678;SDS011;56915;52.046;4.854;2023-03-02T09:09:24;20.35;;;7.63;;
69678;SDS011;56915;52.046;4.854;2023-03-02T09:11:51;24.40;;;8.77;;
69678;SDS011;56915;52.046;4.854;2023-03-02T09:14:18;32.17;;;10.87;;
69678;SDS011;56915;52.046;4.854;2023-03-02T09:16:44;20.38;;;8.23;;
69678;SDS011;56915;52.046;4.854;2023-03-02T09:19:12;24.75;;;9.00;;
69678;SDS011;56915;52.046;4.854;2023-03-02T09:21:39;17.58;;;7.18;;
69678;SDS011;56915;52.046;4.854;2023-03-02T09:24:06;20.85;;;7.78;;
69678;SDS011;56915;52.046;4.854;2023-03-02T09:26:33;21.30;;;8.43;;
69678;SDS011;56915;52.046;4.854;2023-03-02T09:29:01;18.00;;;6.47;;
69678;SDS011;56915;52.046;4.854;2023-03-02T09:31:28;23.75;;;8.63;;
69678;SDS011;56915;52.046;4.854;2023-03-02T09:33:55;24.15;;;9.13;;
69678;SDS011;56915;52.046;4.854;2023-03-02T09:36:23;27.00;;;10.40;;
69678;SDS011;56915;52.046;4.854;2023-03-02T09:38:51;22.47;;;8.27;;
69678;SDS011;56915;52.046;4.854;2023-03-02T09:46:31;17.70;;;7.03;;
69678;SDS011;56915;52.046;4.854;2023-03-02T09:49:13;24.98;;;9.80;;
69678;SDS011;56915;52.046;4.854;2023-03-02T09:52:01;17.87;;;6.73;;
69678;SDS011;56915;52.046;4.854;2023-03-02T09:54:30;14.27;;;6.35;;
69678;SDS011;56915;52.046;4.854;2023-03-02T09:56:58;18.38;;;7.97;;
69678;SDS011;56915;52.046;4.854;2023-03-02T09:59:30;16.70;;;6.97;;
69678;SDS011;56915;52.046;4.854;2023-03-02T10:02:08;22.38;;;7.93;;
69678;SDS011;56915;52.046;4.854;2023-03-02T10:04:52;20.27;;;7.60;;
69678;SDS011;56915;52.046;4.854;2023-03-02T10:07:27;15.57;;;6.53;;
69678;SDS011;56915;52.046;4.854;2023-03-02T10:13:08;21.88;;;8.68;;
69678;SDS011;56915;52.046;4.854;2023-03-02T10:15:53;18.92;;;6.95;;
69678;SDS011;56915;52.046;4.854;2023-03-02T10:18:37;22.70;;;8.20;;
69678;SDS011;56915;52.046;4.854;2023-03-02T10:21:12;16.42;;;6.30;;
69678;SDS011;56915;52.046;4.854;2023-03-02T10:23:58;22.38;;;8.57;;
69678;SDS011;56915;52.046;4.854;2023-03-02T10:26:49;17.65;;;6.70;;
69678;SDS011;56915;52.046;4.854;2023-03-02T10:29:38;21.80;;;8.30;;
69678;SDS011;56915;52.046;4.854;2023-03-02T10:32:18;17.37;;;7.03;;
69678;SDS011;56915;52.046;4.854;2023-03-02T10:34:50;15.50;;;6.53;;
69678;SDS011;56915;52.046;4.854;2023-03-02T10:37:20;21.25;;;8.15;;
69678;SDS011;56915;52.046;4.854;2023-03-02T10:39:50;23.00;;;8.40;;
69678;SDS011;56915;52.046;4.854;2023-03-02T10:42:27;20.52;;;7.28;;
69678;SDS011;56915;52.046;4.854;2023-03-02T10:45:05;24.90;;;9.17;;
69678;SDS011;56915;52.046;4.854;2023-03-02T10:47:39;23.92;;;9.68;;
69678;SDS011;56915;52.046;4.854;2023-03-02T10:50:19;22.42;;;7.35;;
69678;SDS011;56915;52.046;4.854;2023-03-02T10:52:47;21.48;;;8.52;;
69678;SDS011;56915;52.046;4.854;2023-03-02T10:55:25;17.55;;;6.63;;
69678;SDS011;56915;52.046;4.854;2023-03-02T10:58:00;21.43;;;7.80;;
69678;SDS011;56915;52.046;4.854;2023-03-02T11:00:29;23.73;;;8.90;;
69678;SDS011;56915;52.046;4.854;2023-03-02T11:03:02;18.25;;;7.25;;
69678;SDS011;56915;52.046;4.854;2023-03-02T11:08:09;17.33;;;6.95;;
69678;SDS011;56915;52.046;4.854;2023-03-02T11:10:58;18.07;;;6.90;;
69678;SDS011;56915;52.046;4.854;2023-03-02T11:13:33;16.42;;;7.28;;
69678;SDS011;56915;52.046;4.854;2023-03-02T11:16:02;17.63;;;7.65;;
69678;SDS011;56915;52.046;4.854;2023-03-02T11:18:58;15.27;;;6.13;;
69678;SDS011;56915;52.046;4.854;2023-03-02T11:21:29;20.80;;;7.47;;
69678;SDS011;56915;52.046;4.854;2023-03-02T11:32:14;17.88;;;7.22;;
69678;SDS011;56915;52.046;4.854;2023-03-02T11:34:53;22.52;;;7.78;;
69678;SDS011;56915;52.046;4.854;2023-03-02T11:42:42;17.45;;;7.07;;
69678;SDS011;56915;52.046;4.854;2023-03-02T11:47:44;20.15;;;7.90;;
69678;SDS011;56915;52.046;4.854;2023-03-02T11:50:27;19.13;;;7.57;;
69678;SDS011;56915;52.046;4.854;2023-03-02T11:52:56;19.60;;;7.47;;
69678;SDS011;56915;52.046;4.854;2023-03-02T11:55:26;26.10;;;8.27;;
69678;SDS011;56915;52.046;4.854;2023-03-02T11:57:57;22.50;;;8.45;;
69678;SDS011;56915;52.046;4.854;2023-03-02T12:03:05;20.50;;;8.00;;
69678;SDS011;56915;52.046;4.854;2023-03-02T12:05:45;19.83;;;6.95;;
69678;SDS011;56915;52.046;4.854;2023-03-02T12:11:02;21.35;;;8.77;;
69678;SDS011;56915;52.046;4.854;2023-03-02T12:13:56;16.45;;;7.00;;
69678;SDS011;56915;52.046;4.854;2023-03-02T12:19:23;16.90;;;7.00;;
69678;SDS011;56915;52.046;4.854;2023-03-02T12:21:56;18.02;;;7.13;;
69678;SDS011;56915;52.046;4.854;2023-03-02T12:24:30;19.23;;;7.43;;
69678;SDS011;56915;52.046;4.854;2023-03-02T12:27:00;14.75;;;5.75;;
69678;SDS011;56915;52.046;4.854;2023-03-02T12:29:39;17.90;;;6.73;;
69678;SDS011;56915;52.046;4.854;2023-03-02T12:34:44;15.00;;;6.05;;
69678;SDS011;56915;52.046;4.854;2023-03-02T12:37:23;17.65;;;7.63;;
69678;SDS011;56915;52.046;4.854;2023-03-02T12:51:18;21.73;;;8.55;;
69678;SDS011;56915;52.046;4.854;2023-03-02T12:53:48;19.38;;;8.05;;
69678;SDS011;56915;52.046;4.854;2023-03-02T12:56:22;19.00;;;7.43;;
69678;SDS011;56915;52.046;4.854;2023-03-02T12:58:51;15.02;;;6.07;;
69678;SDS011;56915;52.046;4.854;2023-03-02T13:01:25;14.45;;;6.25;;
69678;SDS011;56915;52.046;4.854;2023-03-02T13:03:54;15.27;;;6.05;;
69678;SDS011;56915;52.046;4.854;2023-03-02T13:06:22;18.75;;;7.30;;
69678;SDS011;56915;52.046;4.854;2023-03-02T13:08:53;12.57;;;5.30;;
69678;SDS011;56915;52.046;4.854;2023-03-02T13:11:32;16.35;;;7.05;;
69678;SDS011;56915;52.046;4.854;2023-03-02T13:14:12;14.10;;;6.32;;
69678;SDS011;56915;52.046;4.854;2023-03-02T13:16:51;17.85;;;7.03;;
69678;SDS011;56915;52.046;4.854;2023-03-02T13:19:28;19.98;;;7.07;;
69678;SDS011;56915;52.046;4.854;2023-03-02T13:21:57;13.60;;;5.93;;
69678;SDS011;56915;52.046;4.854;2023-03-02T13:24:27;17.27;;;6.38;;
69678;SDS011;56915;52.046;4.854;2023-03-02T13:27:13;12.63;;;5.65;;
69678;SDS011;56915;52.046;4.854;2023-03-02T13:29:42;11.82;;;5.80;;
69678;SDS011;56915;52.046;4.854;2023-03-02T13:34:44;17.83;;;6.37;;
69678;SDS011;56915;52.046;4.854;2023-03-02T13:37:32;18.05;;;7.20;;
69678;SDS011;56915;52.046;4.854;2023-03-02T13:40:06;23.70;;;10.23;;
69678;SDS011;56915;52.046;4.854;2023-03-02T13:42:56;20.30;;;8.32;;
69678;SDS011;56915;52.046;4.854;2023-03-02T13:45:24;19.08;;;7.47;;
69678;SDS011;56915;52.046;4.854;2023-03-02T13:47:54;22.90;;;9.13;;
69678;SDS011;56915;52.046;4.854;2023-03-02T13:50:23;25.35;;;9.05;;
69678;SDS011;56915;52.046;4.854;2023-03-02T13:52:57;19.52;;;8.85;;
69678;SDS011;56915;52.046;4.854;2023-03-02T13:55:27;21.13;;;8.38;;
69678;SDS011;56915;52.046;4.854;2023-03-02T13:57:55;21.95;;;9.02;;
69678;SDS011;56915;52.046;4.854;2023-03-02T14:00:32;19.90;;;8.33;;
69678;SDS011;56915;52.046;4.854;2023-03-02T14:03:00;19.10;;;8.25;;
69678;SDS011;56915;52.046;4.854;2023-03-02T14:05:27;22.92;;;8.45;;
69678;SDS011;56915;52.046;4.854;2023-03-02T14:10:32;21.58;;;8.70;;
69678;SDS011;56915;52.046;4.854;2023-03-02T14:13:04;18.27;;;7.37;;
69678;SDS011;56915;52.046;4.854;2023-03-02T14:15:35;25.42;;;9.55;;
69678;SDS011;56915;52.046;4.854;2023-03-02T14:21:12;19.92;;;8.48;;
69678;SDS011;56915;52.046;4.854;2023-03-02T14:23:44;21.75;;;9.52;;
69678;SDS011;56915;52.046;4.854;2023-03-02T14:26:19;19.13;;;8.93;;
69678;SDS011;56915;52.046;4.854;2023-03-02T14:29:06;21.23;;;8.20;;
69678;SDS011;56915;52.046;4.854;2023-03-02T14:31:46;24.67;;;9.40;;
69678;SDS011;56915;52.046;4.854;2023-03-02T14:34:13;25.58;;;9.85;;
69678;SDS011;56915;52.046;4.854;2023-03-02T14:36:42;20.38;;;8.82;;
69678;SDS011;56915;52.046;4.854;2023-03-02T14:39:17;24.00;;;9.03;;
69678;SDS011;56915;52.046;4.854;2023-03-02T14:41:57;19.42;;;8.30;;
69678;SDS011;56915;52.046;4.854;2023-03-02T14:44:24;21.65;;;9.05;;
69678;SDS011;56915;52.046;4.854;2023-03-02T14:46:51;22.10;;;9.05;;
69678;SDS011;56915;52.046;4.854;2023-03-02T14:49:18;20.05;;;8.68;;
69678;SDS011;56915;52.046;4.854;2023-03-02T14:51:48;22.00;;;8.47;;
69678;SDS011;56915;52.046;4.854;2023-03-02T14:54:31;23.77;;;9.07;;
69678;SDS011;56915;52.046;4.854;2023-03-02T14:57:35;20.77;;;8.93;;
69678;SDS011;56915;52.046;4.854;2023-03-02T15:00:04;22.20;;;9.25;;
69678;SDS011;56915;52.046;4.854;2023-03-02T15:02:32;26.25;;;9.88;;
69678;SDS011;56915;52.046;4.854;2023-03-02T15:04:59;27.53;;;10.87;;
69678;SDS011;56915;52.046;4.854;2023-03-02T15:07:26;28.58;;;11.20;;
69678;SDS011;56915;52.046;4.854;2023-03-02T15:09:54;29.77;;;11.73;;
69678;SDS011;56915;52.046;4.854;2023-03-02T15:12:22;20.73;;;9.25;;
69678;SDS011;56915;52.046;4.854;2023-03-02T15:14:49;22.52;;;8.43;;
69678;SDS011;56915;52.046;4.854;2023-03-02T15:17:16;27.90;;;9.20;;
69678;SDS011;56915;52.046;4.854;2023-03-02T15:19:43;24.35;;;9.98;;
69678;SDS011;56915;52.046;4.854;2023-03-02T15:22:10;23.13;;;9.80;;
69678;SDS011;56915;52.046;4.854;2023-03-02T15:24:38;19.63;;;9.00;;
69678;SDS011;56915;52.046;4.854;2023-03-02T15:27:05;17.08;;;8.10;;
69678;SDS011;56915;52.046;4.854;2023-03-02T15:29:32;19.27;;;8.10;;
69678;SDS011;56915;52.046;4.854;2023-03-02T15:31:59;27.10;;;9.45;;
69678;SDS011;56915;52.046;4.854;2023-03-02T15:34:26;21.73;;;9.25;;
69678;SDS011;56915;52.046;4.854;2023-03-02T15:36:53;23.08;;;10.02;;
69678;SDS011;56915;52.046;4.854;2023-03-02T15:39:20;18.98;;;8.48;;
69678;SDS011;56915;52.046;4.854;2023-03-02T15:41:46;19.47;;;8.27;;
69678;SDS011;56915;52.046;4.854;2023-03-02T15:44:17;15.88;;;7.75;;
69678;SDS011;56915;52.046;4.854;2023-03-02T15:46:57;25.17;;;11.05;;
69678;SDS011;56915;52.046;4.854;2023-03-02T15:49:25;23.17;;;9.90;;
69678;SDS011;56915;52.046;4.854;2023-03-02T15:51:54;24.67;;;10.50;;